Time;durP1;ratioP1;P1;durP2;ratioP2;P2;SDS_P1;SDS_P2;PMS_P1;PMS_P2;Temp;Humidity;BMP_temperature;BMP_pressure;BME280_temperature;BME280_humidity;BME280_pressure;Samples;Min_cycle;Max_cycle;Signal;HPM_P1;HPM_P2
2019/09/22 00:02:25;;;;;;;5.4;3.2;;;;;;;12.59;77.63086;936.6531;;;;
2019/09/22 00:04:50;;;;;;;4.9;3.1;;;;;;;12.48;78.03418;936.6156;;;;
2019/09/22 00:07:19;;;;;;;5.8;3.3;;;;;;;12.37;78.47266;936.4925;;;;
2019/09/22 00:09:46;;;;;;;6.4;3;;;;;;;12.42;78.40234;936.5622;;;;
2019/09/22 00:12:12;;;;;;;3.8;3;;;;;;;12.62;77.7041;936.5168;;;;
2019/09/22 00:15:00;;;;;;;5.6;3;;;;;;;12.64;77.30566;936.5272;;;;
2019/09/22 00:17:26;;;;;;;4.7;2.8;;;;;;;12.56;77.56641;936.4311;;;;
2019/09/22 00:20:08;;;;;;;5.5;2.8;;;;;;;12.61;77.31055;936.4175;;;;
2019/09/22 00:22:18;;;;;;;5.1;2.8;;;;;;;12.52;77.52539;936.4919;;;;
2019/09/22 00:24:45;;;;;;;3.8;2.5;;;;;;;12.3;78.40234;936.4518;;;;
2019/09/22 00:27:16;;;;;;;5.3;2.7;;;;;;;12.14;79.16602;936.4148;;;;
2019/09/22 00:29:42;;;;;;;5.7;2.9;;;;;;;12.3;78.62207;936.36;;;;
2019/09/22 00:32:13;;;;;;;5;3;;;;;;;12.39;78.35156;936.3895;;;;
2019/09/22 00:34:46;;;;;;;5;3.2;;;;;;;12.16;79.01953;936.4108;;;;
2019/09/22 00:37:11;;;;;;;5.7;3.2;;;;;;;12.02;79.74023;936.4395;;;;
2019/09/22 00:39:37;;;;;;;5.9;3.1;;;;;;;12.08;79.47461;936.4523;;;;
2019/09/22 00:42:06;;;;;;;6;3.2;;;;;;;12.28;78.99512;936.4838;;;;
2019/09/22 00:44:32;;;;;;;4.7;3.1;;;;;;;12.39;78.27148;936.3095;;;;
2019/09/22 00:46:59;;;;;;;5;3.2;;;;;;;12.38;78.29297;936.387;;;;
2019/09/22 00:49:33;;;;;;;5;3;;;;;;;12.58;77.35352;936.4542;;;;
2019/09/22 00:52:07;;;;;;;4.6;2.7;;;;;;;12.44;77.69629;936.3625;;;;
2019/09/22 00:54:34;;;;;;;4.8;2.7;;;;;;;12.49;77.62402;936.2747;;;;
2019/09/22 00:57:00;;;;;;;3.9;2.6;;;;;;;12.61;77.03906;936.2332;;;;
2019/09/22 00:59:32;;;;;;;4.1;2.6;;;;;;;12.66;76.85156;936.2883;;;;
2019/09/22 01:01:59;;;;;;;3.6;2.5;;;;;;;12.63;76.7207;936.1693;;;;
2019/09/22 01:04:32;;;;;;;3.4;2.2;;;;;;;12.53;77.02246;936.2275;;;;
2019/09/22 01:07:12;;;;;;;6.4;2.6;;;;;;;12.5;77.33887;936.1277;;;;
2019/09/22 01:10:03;;;;;;;4.6;2.7;;;;;;;12.62;76.88965;936.0591;;;;
2019/09/22 01:12:37;;;;;;;5;2.8;;;;;;;12.47;77.18359;936.1277;;;;
2019/09/22 01:15:01;;;;;;;4;2.7;;;;;;;12.35;77.60938;936.082;;;;
2019/09/22 01:17:26;;;;;;;5.2;2.9;;;;;;;12.47;77.52734;936.0543;;;;
2019/09/22 01:19:55;;;;;;;3.6;2.8;;;;;;;12.52;76.98633;936.0606;;;;
2019/09/22 01:22:18;;;;;;;4.2;2.6;;;;;;;12.56;76.63867;936.0517;;;;
2019/09/22 01:25:05;;;;;;;3.9;2.6;;;;;;;12.58;76.83691;935.9622;;;;
2019/09/22 01:27:21;;;;;;;5.2;2.8;;;;;;;12.4;77.55078;935.9335;;;;
2019/09/22 01:29:48;;;;;;;4.7;2.6;;;;;;;12.08;78.53711;935.8943;;;;
2019/09/22 01:32:13;;;;;;;4.9;2.8;;;;;;;12.02;78.91504;935.9247;;;;
2019/09/22 01:35:08;;;;;;;4.2;2.7;;;;;;;12.25;78.2666;935.8506;;;;
2019/09/22 01:38:06;;;;;;;3.6;2.7;;;;;;;12.55;77.19824;935.8457;;;;
2019/09/22 01:40:39;;;;;;;5;2.6;;;;;;;12.62;77.15332;935.8203;;;;
2019/09/22 01:45:37;;;;;;;4;2.5;;;;;;;12.78;76.20703;935.8182;;;;
2019/09/22 01:48:02;;;;;;;4.8;2.7;;;;;;;12.61;76.63574;935.8279;;;;
2019/09/22 01:51:06;;;;;;;6.2;2.7;;;;;;;12.19;78.32617;935.7858;;;;
2019/09/22 01:53:42;;;;;;;5.3;2.5;;;;;;;12.15;78.75488;935.7555;;;;
2019/09/22 01:56:11;;;;;;;3.8;2.8;;;;;;;12.12;78.85254;935.7475;;;;
2019/09/22 01:58:49;;;;;;;5.2;2.6;;;;;;;12.44;77.86816;935.7796;;;;
2019/09/22 02:01:17;;;;;;;5.8;2.9;;;;;;;12.59;76.94238;935.7426;;;;
2019/09/22 02:03:45;;;;;;;4.8;2.6;;;;;;;12.48;77.39355;935.7492;;;;
2019/09/22 02:06:09;;;;;;;5.7;2.6;;;;;;;12.63;77.2373;935.6916;;;;
2019/09/22 02:08:36;;;;;;;4.7;2.7;;;;;;;12.55;76.46387;935.6628;;;;
2019/09/22 02:11:06;;;;;;;3.7;2.6;;;;;;;12.79;76.31152;935.6224;;;;
2019/09/22 02:13:39;;;;;;;6.4;2.6;;;;;;;12.88;75.7998;935.6088;;;;
2019/09/22 02:16:14;;;;;;;4.9;2.6;;;;;;;13.02;75.58203;935.579;;;;
2019/09/22 02:18:51;;;;;;;5.5;2.5;;;;;;;13.06;75.03711;935.598;;;;
2019/09/22 02:22:06;;;;;;;6.1;2.8;;;;;;;13.05;75.66895;935.6085;;;;
2019/09/22 02:24:34;;;;;;;5.2;2.7;;;;;;;12.98;75.81641;935.5613;;;;
2019/09/22 02:27:04;;;;;;;5.6;2.8;;;;;;;13.08;75.15625;935.5818;;;;
2019/09/22 02:29:40;;;;;;;5.6;2.7;;;;;;;13.15;75.23828;935.592;;;;
2019/09/22 02:32:10;;;;;;;4.6;2.7;;;;;;;13.06;75.3252;935.5828;;;;
2019/09/22 02:34:36;;;;;;;5.6;2.8;;;;;;;12.76;76.67383;935.5466;;;;
2019/09/22 02:37:05;;;;;;;3.9;2.7;;;;;;;12.94;76.24512;935.5303;;;;
2019/09/22 02:39:35;;;;;;;3.6;2.5;;;;;;;12.67;77.23145;935.5158;;;;
2019/09/22 02:42:04;;;;;;;4.9;2.4;;;;;;;12.62;76.92383;935.4225;;;;
2019/09/22 02:44:30;;;;;;;3.4;2.5;;;;;;;12.82;76.0752;935.3582;;;;
2019/09/22 02:47:03;;;;;;;5.6;2.5;;;;;;;12.92;76.19727;935.4888;;;;
2019/09/22 02:49:27;;;;;;;4.1;2.3;;;;;;;13.06;75.62402;935.4772;;;;
2019/09/22 02:51:59;;;;;;;5.4;2.7;;;;;;;13.15;75.04102;935.3377;;;;
2019/09/22 02:54:33;;;;;;;6.4;2.7;;;;;;;13.19;75.14063;935.321;;;;
2019/09/22 02:57:06;;;;;;;3.8;2.6;;;;;;;13.19;75.09668;935.3337;;;;
2019/09/22 02:59:36;;;;;;;4.2;2.6;;;;;;;13.23;75.33203;935.3427;;;;
2019/09/22 03:02:05;;;;;;;5.4;2.3;;;;;;;13.26;75.39453;935.3865;;;;
2019/09/22 03:04:32;;;;;;;4.8;2.5;;;;;;;13.32;75.18555;935.3198;;;;
2019/09/22 03:06:56;;;;;;;3.1;2.3;;;;;;;13.37;75.31152;935.2674;;;;
2019/09/22 03:09:26;;;;;;;5.4;2.7;;;;;;;13.3;75.19434;935.3095;;;;
2019/09/22 03:12:12;;;;;;;4.3;2.7;;;;;;;13.26;75.26855;935.2729;;;;
2019/09/22 03:14:36;;;;;;;4.7;2.4;;;;;;;13.3;75;935.248;;;;
2019/09/22 03:17:07;;;;;;;3.8;2.6;;;;;;;13.24;75.31055;935.1859;;;;
2019/09/22 03:19:33;;;;;;;5.5;2.5;;;;;;;13.21;75.64941;935.257;;;;
2019/09/22 03:21:58;;;;;;;4.8;2.6;;;;;;;12.86;77.23145;935.1822;;;;
2019/09/22 03:24:24;;;;;;;4;2.6;;;;;;;12.89;77.30664;935.2068;;;;
2019/09/22 03:26:49;;;;;;;4.3;2.6;;;;;;;12.72;78.00879;935.1873;;;;
2019/09/22 03:29:18;;;;;;;5.6;2.4;;;;;;;12.77;76.50391;935.2709;;;;
2019/09/22 03:31:46;;;;;;;4;2.7;;;;;;;12.96;75.96289;935.1594;;;;
2019/09/22 03:34:18;;;;;;;3.9;2.5;;;;;;;13.08;76.13281;935.2406;;;;
2019/09/22 03:36:49;;;;;;;5;2.4;;;;;;;13.2;72.31641;935.1931;;;;
2019/09/22 03:39:21;;;;;;;3.8;2.4;;;;;;;13.36;74.08984;935.1364;;;;
2019/09/22 03:42:13;;;;;;;2.2;2;;;;;;;13.5;73.57324;935.1686;;;;
2019/09/22 03:44:40;;;;;;;5.8;2.4;;;;;;;13.51;74.24219;935.1205;;;;
2019/09/22 03:47:12;;;;;;;3.9;2.2;;;;;;;13.57;74.09082;935.0497;;;;
2019/09/22 03:50:06;;;;;;;4.9;2.4;;;;;;;13.55;74.47852;935.085;;;;
2019/09/22 03:52:25;;;;;;;3.5;2.2;;;;;;;13.59;72.40332;935.0231;;;;
2019/09/22 03:54:52;;;;;;;4.6;2.3;;;;;;;13.77;72.2041;935.0692;;;;
2019/09/22 03:57:25;;;;;;;4.7;2.6;;;;;;;13.62;73.28223;935.1008;;;;
2019/09/22 03:59:57;;;;;;;4.1;2.6;;;;;;;13.66;73.1875;935.1141;;;;
2019/09/22 04:02:40;;;;;;;5.2;2.4;;;;;;;13.73;73.11621;935.068;;;;
2019/09/22 04:05:13;;;;;;;5;2.6;;;;;;;13.7;73.58301;935.1027;;;;
2019/09/22 04:07:39;;;;;;;5.8;2.6;;;;;;;13.47;74.75391;935.168;;;;
2019/09/22 04:10:12;;;;;;;3.6;2.7;;;;;;;13.56;74.69922;935.0914;;;;
2019/09/22 04:12:39;;;;;;;5;2.8;;;;;;;13.35;75.87109;935.158;;;;
2019/09/22 04:15:16;;;;;;;4.3;2.8;;;;;;;13.33;75.82031;935.0958;;;;
2019/09/22 04:17:49;;;;;;;3;2.2;;;;;;;13.33;75.5791;935.0438;;;;
2019/09/22 04:20:29;;;;;;;3.9;2.5;;;;;;;13.32;75.10645;935.0798;;;;
2019/09/22 04:22:45;;;;;;;3.7;2.1;;;;;;;13.41;71.77734;934.973;;;;
2019/09/22 04:25:09;;;;;;;4.3;2.4;;;;;;;13.79;68.56055;934.9891;;;;
2019/09/22 04:27:41;;;;;;;3;1.8;;;;;;;14.11;67.33203;934.9468;;;;
2019/09/22 04:30:12;;;;;;;3.4;2;;;;;;;14.4;66.97461;934.9129;;;;
2019/09/22 04:32:37;;;;;;;4.6;2.6;;;;;;;14.46;67.12109;934.9024;;;;
2019/09/22 04:35:07;;;;;;;5.3;3.1;;;;;;;14.3;69.52832;934.9684;;;;
2019/09/22 04:37:43;;;;;;;6.1;3.1;;;;;;;14.33;70.28125;934.9738;;;;
2019/09/22 04:40:02;;;;;;;4.9;3.1;;;;;;;13.97;71.85645;935.0078;;;;
2019/09/22 04:42:29;;;;;;;5.1;2.8;;;;;;;14.02;72.02734;935.0076;;;;
2019/09/22 04:45:02;;;;;;;4.5;2.4;;;;;;;13.97;70.5;934.9941;;;;
2019/09/22 04:47:31;;;;;;;5.1;2.6;;;;;;;14.07;70.78125;935.0633;;;;
2019/09/22 04:50:05;;;;;;;5.1;2.3;;;;;;;14.09;70.50684;935.1024;;;;
2019/09/22 04:52:33;;;;;;;3.3;2.1;;;;;;;14.4;67.48145;935.0675;;;;
2019/09/22 04:55:02;;;;;;;7.3;3.1;;;;;;;14.3;70.21875;935.0589;;;;
2019/09/22 04:57:26;;;;;;;5.8;3.3;;;;;;;14.18;71.36328;935.0966;;;;
2019/09/22 04:59:55;;;;;;;6.4;2.9;;;;;;;14.25;70.9834;935.0129;;;;
2019/09/22 05:02:22;;;;;;;4;3;;;;;;;14.14;71.0332;935.0786;;;;
2019/09/22 05:04:58;;;;;;;4.8;2.7;;;;;;;14.14;71.35742;934.9865;;;;
2019/09/22 05:07:18;;;;;;;5.1;2.3;;;;;;;14.27;68.86816;935.0656;;;;
2019/09/22 05:09:53;;;;;;;4.6;2.3;;;;;;;14.42;68.2002;935.0988;;;;
2019/09/22 05:12:14;;;;;;;3.9;2.3;;;;;;;14.54;68.4707;935.1339;;;;
2019/09/22 05:14:53;;;;;;;4.9;2.7;;;;;;;14.55;69.59082;935.1386;;;;
2019/09/22 05:17:18;;;;;;;5.1;3.1;;;;;;;14.47;70.33984;935.2347;;;;
2019/09/22 05:19:56;;;;;;;5;3.2;;;;;;;14.19;72.04395;935.2102;;;;
2019/09/22 05:22:21;;;;;;;6.8;3.3;;;;;;;14.21;72.33496;935.1492;;;;
2019/09/22 05:24:54;;;;;;;5.9;3.3;;;;;;;14.05;72.91797;935.1531;;;;
2019/09/22 05:27:35;;;;;;;5.1;3.8;;;;;;;13.85;73.64355;935.217;;;;
2019/09/22 05:30:07;;;;;;;7.4;3.2;;;;;;;13.8;74.40723;935.1778;;;;
2019/09/22 05:33:14;;;;;;;4.4;3.3;;;;;;;13.84;74.0791;935.2386;;;;
2019/09/22 05:35:34;;;;;;;5.8;3;;;;;;;13.49;75.80176;935.2966;;;;
2019/09/22 05:38:07;;;;;;;8.2;3.2;;;;;;;13.54;75.70703;935.2755;;;;
2019/09/22 05:40:38;;;;;;;4.8;3.1;;;;;;;13.3;76.67578;935.2767;;;;
2019/09/22 05:43:15;;;;;;;4.5;2.7;;;;;;;13.16;76.85742;935.2585;;;;
2019/09/22 05:45:47;;;;;;;4.9;2.9;;;;;;;13.36;76.61816;935.2028;;;;
2019/09/22 05:48:16;;;;;;;4.4;2.8;;;;;;;13.58;75.72656;935.2472;;;;
2019/09/22 05:50:50;;;;;;;6.1;2.8;;;;;;;13.71;75.28906;935.1841;;;;
2019/09/22 05:53:19;;;;;;;6.6;2.9;;;;;;;13.86;74.79785;935.1216;;;;
2019/09/22 05:55:49;;;;;;;5.6;3.2;;;;;;;13.73;75.21094;935.1535;;;;
2019/09/22 05:58:18;;;;;;;5.5;2.9;;;;;;;13.52;75.86328;935.1237;;;;
2019/09/22 06:00:51;;;;;;;4;2.5;;;;;;;13.73;76.2002;935.1624;;;;
2019/09/22 06:03:18;;;;;;;4.2;2.8;;;;;;;13.89;74.82324;935.207;;;;
2019/09/22 06:05:44;;;;;;;5;2.5;;;;;;;14.06;74.31348;935.217;;;;
2019/09/22 06:08:22;;;;;;;5;2.8;;;;;;;14.31;74.44727;935.2006;;;;
2019/09/22 06:10:47;;;;;;;4.7;2.6;;;;;;;14.43;72.37207;935.1869;;;;
2019/09/22 06:13:21;;;;;;;4.9;2.6;;;;;;;14.47;72.20508;935.1972;;;;
2019/09/22 06:15:46;;;;;;;5.9;2.6;;;;;;;14.43;73.13281;935.2072;;;;
2019/09/22 06:18:19;;;;;;;4.3;2.4;;;;;;;14.67;72.11328;935.2425;;;;
2019/09/22 06:20:44;;;;;;;4.4;2.5;;;;;;;14.76;71.80371;935.2664;;;;
2019/09/22 06:23:15;;;;;;;7.2;2.6;;;;;;;14.82;72.12402;935.2155;;;;
2019/09/22 06:25:59;;;;;;;8.1;2.6;;;;;;;14.93;71.21875;935.1379;;;;
2019/09/22 06:28:41;;;;;;;6.3;3;;;;;;;14.93;71.53223;935.1869;;;;
2019/09/22 06:31:22;;;;;;;4.5;2.8;;;;;;;15.19;71.86328;935.159;;;;
2019/09/22 06:33:55;;;;;;;4.1;2.4;;;;;;;15.39;70.92578;935.1822;;;;
2019/09/22 06:36:21;;;;;;;4.5;2.3;;;;;;;15.46;70.91309;935.2056;;;;
2019/09/22 06:41:22;;;;;;;5.8;2.3;;;;;;;15.64;68.09082;935.2678;;;;
2019/09/22 06:44:05;;;;;;;4.7;2.5;;;;;;;15.8;67.45508;935.2236;;;;
2019/09/22 06:49:20;;;;;;;7.5;3.7;;;;;;;15.96;67.30762;935.2349;;;;
2019/09/22 06:51:55;;;;;;;9.9;5.2;;;;;;;15.88;68.6123;935.2805;;;;
2019/09/22 06:54:34;;;;;;;5.9;3.4;;;;;;;15.77;69.78418;935.3003;;;;
2019/09/22 06:57:07;;;;;;;8.3;3.8;;;;;;;15.61;71.19238;935.296;;;;
2019/09/22 06:59:40;;;;;;;6.8;3.6;;;;;;;15.64;71.58887;935.348;;;;
2019/09/22 07:02:20;;;;;;;9.9;3.4;;;;;;;15.5;72.39844;935.3061;;;;
2019/09/22 07:07:20;;;;;;;6.2;2.6;;;;;;;15.14;71.40527;935.267;;;;
2019/09/22 07:10:20;;;;;;;6;3.1;;;;;;;15.29;71.81055;935.2293;;;;
2019/09/22 07:15:24;;;;;;;6.9;2.7;;;;;;;15.65;69.68652;935.2773;;;;
2019/09/22 07:17:59;;;;;;;6.6;2.8;;;;;;;15.66;70.09082;935.2667;;;;
2019/09/22 07:20:25;;;;;;;3.5;2.7;;;;;;;15.82;70.40527;935.2967;;;;
2019/09/22 07:22:54;;;;;;;6.4;2.7;;;;;;;15.85;69.70605;935.2729;;;;
2019/09/22 07:25:22;;;;;;;6.6;2.8;;;;;;;15.95;69.71191;935.2929;;;;
2019/09/22 07:28:00;;;;;;;8.4;3.9;;;;;;;15.92;69.97168;935.3119;;;;
2019/09/22 07:30:24;;;;;;;5.6;3.4;;;;;;;15.87;69.68555;935.2333;;;;
2019/09/22 07:32:52;;;;;;;5.3;3.7;;;;;;;15.97;70.0498;935.2668;;;;
2019/09/22 07:35:23;;;;;;;5.6;3.5;;;;;;;16.04;69.12305;935.1994;;;;
2019/09/22 07:37:55;;;;;;;6.4;3.1;;;;;;;16.18;68.89063;935.1811;;;;
2019/09/22 07:40:28;;;;;;;10.2;3.3;;;;;;;16.15;69.32422;935.2186;;;;
2019/09/22 07:42:55;;;;;;;8.6;3.5;;;;;;;16.45;69.30371;935.2106;;;;
2019/09/22 07:45:21;;;;;;;10.2;3.6;;;;;;;16.83;68.8418;935.1923;;;;
2019/09/22 07:47:48;;;;;;;9.4;3.8;;;;;;;16.92;68.4873;935.2308;;;;
2019/09/22 07:50:20;;;;;;;7.8;3.5;;;;;;;17.16;67.84961;935.2012;;;;
2019/09/22 07:52:49;;;;;;;6.8;3.5;;;;;;;17.34;66.78906;935.2081;;;;
2019/09/22 07:55:13;;;;;;;10.5;4.1;;;;;;;17.62;66.18066;935.0408;;;;
2019/09/22 07:57:48;;;;;;;7.7;3.4;;;;;;;17.93;64.88184;935.1355;;;;
2019/09/22 08:00:13;;;;;;;5.4;2.9;;;;;;;18.11;63.17676;935.0744;;;;
2019/09/22 08:02:39;;;;;;;6.1;3.2;;;;;;;18.27;64.41992;935.1199;;;;
2019/09/22 08:05:04;;;;;;;7;3.3;;;;;;;18.49;64.11328;935.1316;;;;
2019/09/22 08:07:36;;;;;;;6.4;2.9;;;;;;;18.49;61.11426;935.0564;;;;
2019/09/22 08:10:02;;;;;;;3.6;1.9;;;;;;;18.24;57.12988;934.9786;;;;
2019/09/22 08:12:37;;;;;;;5.4;1.9;;;;;;;18.33;57.66309;934.9386;;;;
2019/09/22 08:15:09;;;;;;;3.5;2.1;;;;;;;18.56;57.76367;934.9127;;;;
2019/09/22 08:17:41;;;;;;;3.9;2.3;;;;;;;18.49;58.20801;934.8702;;;;
2019/09/22 08:20:22;;;;;;;4.7;2.5;;;;;;;18.74;58.56641;934.8334;;;;
2019/09/22 08:22:49;;;;;;;5.7;2.4;;;;;;;19.01;57.60156;934.7463;;;;
2019/09/22 08:25:20;;;;;;;4.9;2.1;;;;;;;19.08;56.16699;934.7211;;;;
2019/09/22 08:27:54;;;;;;;6.9;2.5;;;;;;;19.39;56.03125;934.684;;;;
2019/09/22 08:30:20;;;;;;;5.2;1.9;;;;;;;19.51;55.33594;934.6677;;;;
2019/09/22 08:32:48;;;;;;;3.4;1.9;;;;;;;19.68;55.78809;934.6599;;;;
2019/09/22 08:35:20;;;;;;;5.1;1.8;;;;;;;19.82;54.82617;934.6142;;;;
2019/09/22 08:37:47;;;;;;;4.1;1.9;;;;;;;19.82;55.71191;934.5948;;;;
2019/09/22 08:40:24;;;;;;;4.7;2.1;;;;;;;19.83;56.37988;934.5496;;;;
2019/09/22 08:43:27;;;;;;;5.3;2;;;;;;;19.92;56.78711;934.5474;;;;
2019/09/22 08:45:57;;;;;;;4;2.1;;;;;;;20.12;56.08984;934.5023;;;;
2019/09/22 08:48:38;;;;;;;6.8;2.3;;;;;;;20.27;57.01855;934.4554;;;;
2019/09/22 08:51:03;;;;;;;5.4;2.3;;;;;;;20.31;56.46387;934.437;;;;
2019/09/22 08:53:41;;;;;;;5;2.1;;;;;;;20.55;54.7998;934.4408;;;;
2019/09/22 08:56:07;;;;;;;4.5;2.1;;;;;;;20.4;55.17871;934.4291;;;;
2019/09/22 08:58:37;;;;;;;4.8;2.4;;;;;;;20.48;55.92383;934.461;;;;
2019/09/22 09:01:00;;;;;;;6.2;2.5;;;;;;;20.72;55.26563;934.4948;;;;
2019/09/22 09:03:32;;;;;;;7.7;2.5;;;;;;;20.84;57.3252;934.4781;;;;
2019/09/22 09:06:03;;;;;;;4;2.4;;;;;;;21.14;56.27637;934.4163;;;;
2019/09/22 09:08:31;;;;;;;5.7;2.3;;;;;;;21.28;53.4043;934.4592;;;;
2019/09/22 09:11:00;;;;;;;4.3;2.2;;;;;;;21.28;52.41016;934.4462;;;;
2019/09/22 09:13:27;;;;;;;5.2;2.3;;;;;;;21.52;54.67383;934.3767;;;;
2019/09/22 09:15:54;;;;;;;5.5;2.1;;;;;;;21.46;52.38477;934.3304;;;;
2019/09/22 09:18:22;;;;;;;5;2.2;;;;;;;21.14;53.02441;934.3839;;;;
2019/09/22 09:23:19;;;;;;;4.8;2.2;;;;;;;21.09;53.1709;934.3152;;;;
2019/09/22 09:25:47;;;;;;;3.9;2.2;;;;;;;21.32;52.8584;934.372;;;;
2019/09/22 09:28:18;;;;;;;5.6;2.2;;;;;;;21.61;55.66895;934.3684;;;;
2019/09/22 09:30:43;;;;;;;6.5;2.3;;;;;;;21.89;53.14941;934.3044;;;;
2019/09/22 09:33:17;;;;;;;3.7;1.9;;;;;;;22.11;52.44922;934.3192;;;;
2019/09/22 09:35:41;;;;;;;5.7;2.3;;;;;;;22.31;53.30566;934.3397;;;;
2019/09/22 09:38:22;;;;;;;6.6;2.1;;;;;;;22.47;50.9668;934.3063;;;;
2019/09/22 09:40:46;;;;;;;7.1;2.2;;;;;;;22.57;50.89648;934.2679;;;;
2019/09/22 09:43:21;;;;;;;8.1;2.3;;;;;;;22.58;50.63867;934.2555;;;;
2019/09/22 09:45:52;;;;;;;4.5;1.9;;;;;;;22.47;47.64648;934.2737;;;;
2019/09/22 09:48:21;;;;;;;3.2;1.9;;;;;;;22.49;47.53125;934.2048;;;;
2019/09/22 09:51:07;;;;;;;3.7;1.9;;;;;;;22.49;51.08594;934.178;;;;
2019/09/22 09:53:39;;;;;;;3.4;1.8;;;;;;;22.55;46.86914;934.1293;;;;
2019/09/22 09:56:04;;;;;;;6.8;1.9;;;;;;;22.59;47.99902;934.1479;;;;
2019/09/22 09:58:34;;;;;;;2.6;1.7;;;;;;;22.64;47.14746;934.1778;;;;
2019/09/22 10:01:01;;;;;;;3.8;1.9;;;;;;;22.73;47.00488;934.1608;;;;
2019/09/22 10:03:35;;;;;;;3.3;1.9;;;;;;;22.87;47.56055;934.163;;;;
2019/09/22 10:06:09;;;;;;;4.9;1.9;;;;;;;23.04;47.15527;934.1219;;;;
2019/09/22 10:08:38;;;;;;;3.5;2;;;;;;;23.14;48.22363;934.0828;;;;
2019/09/22 10:11:13;;;;;;;3.6;1.9;;;;;;;23.28;47.75684;934.1028;;;;
2019/09/22 10:13:45;;;;;;;2.9;1.5;;;;;;;23.14;45.74414;934.0367;;;;
2019/09/22 10:16:14;;;;;;;4.8;1.9;;;;;;;23.14;46.69629;934.0701;;;;
2019/09/22 10:18:54;;;;;;;4.1;2;;;;;;;23.28;47.46289;934.085;;;;
2019/09/22 10:21:20;;;;;;;4;1.9;;;;;;;23.08;46.7373;934.071;;;;
2019/09/22 10:24:04;;;;;;;5;2;;;;;;;23.19;45.77344;934.0636;;;;
2019/09/22 10:26:21;;;;;;;2.9;1.7;;;;;;;23.41;48.04004;934.0263;;;;
2019/09/22 10:28:57;;;;;;;4.7;2;;;;;;;23.63;49.35938;933.9709;;;;
2019/09/22 10:31:29;;;;;;;4.2;1.8;;;;;;;23.78;47.375;933.9637;;;;
2019/09/22 10:33:52;;;;;;;4;1.8;;;;;;;23.8;43.19922;933.9067;;;;
2019/09/22 10:38:57;;;;;;;5.9;1.9;;;;;;;23.77;47.7041;933.8625;;;;
2019/09/22 10:41:32;;;;;;;4.6;1.8;;;;;;;23.84;46.98047;933.7874;;;;
2019/09/22 10:44:07;;;;;;;5.3;2;;;;;;;24.01;48.07031;933.875;;;;
2019/09/22 10:46:39;;;;;;;7.1;1.9;;;;;;;24.19;44.80469;933.848;;;;
2019/09/22 10:49:09;;;;;;;4.7;2.1;;;;;;;24.47;48.74414;933.7794;;;;
2019/09/22 10:51:42;;;;;;;3.2;1.8;;;;;;;24.76;45.48535;933.7706;;;;
2019/09/22 10:54:16;;;;;;;5.4;2.1;;;;;;;24.92;48.59277;933.8041;;;;
2019/09/22 10:56:40;;;;;;;4.2;1.7;;;;;;;24.91;45.11133;933.7818;;;;
2019/09/22 10:59:12;;;;;;;3.6;1.6;;;;;;;24.89;45.68848;933.7411;;;;
2019/09/22 11:01:41;;;;;;;3;1.7;;;;;;;24.99;43.91797;933.7406;;;;
2019/09/22 11:04:25;;;;;;;3.8;1.8;;;;;;;24.94;42.625;933.7009;;;;
2019/09/22 11:07:05;;;;;;;3.8;1.8;;;;;;;24.93;41.75098;933.7159;;;;
2019/09/22 11:09:43;;;;;;;3.7;1.6;;;;;;;25.06;42.21289;933.6722;;;;
2019/09/22 11:12:07;;;;;;;3.4;1.7;;;;;;;25.16;42.0918;933.6342;;;;
2019/09/22 11:14:39;;;;;;;3.6;1.9;;;;;;;25.18;43.09668;933.59;;;;
2019/09/22 11:17:09;;;;;;;5.2;2.1;;;;;;;25.13;47.09277;933.5364;;;;
2019/09/22 11:19:35;;;;;;;3.9;1.8;;;;;;;25.13;48.48633;933.4715;;;;
2019/09/22 11:22:24;;;;;;;4.8;2;;;;;;;25.13;50.2207;933.4868;;;;
2019/09/22 11:24:49;;;;;;;4.6;1.8;;;;;;;25.18;49.73145;933.4872;;;;
2019/09/22 11:27:25;;;;;;;5.4;1.9;;;;;;;25.26;48.03906;933.471;;;;
2019/09/22 11:29:52;;;;;;;3.1;1.9;;;;;;;25.45;46.72559;933.5056;;;;
2019/09/22 11:32:25;;;;;;;3.6;1.8;;;;;;;25.54;46.07324;933.519;;;;
2019/09/22 11:35:02;;;;;;;4.5;1.9;;;;;;;25.64;46.0127;933.5016;;;;
2019/09/22 11:37:27;;;;;;;3.7;2;;;;;;;25.58;46.56152;933.4984;;;;
2019/09/22 11:40:07;;;;;;;4.5;1.7;;;;;;;25.76;45.45801;933.4464;;;;
2019/09/22 11:42:42;;;;;;;3.8;1.8;;;;;;;26.02;46.12305;933.462;;;;
2019/09/22 11:45:13;;;;;;;3.6;1.7;;;;;;;26.24;44.52539;933.4593;;;;
2019/09/22 11:47:46;;;;;;;3.4;1.8;;;;;;;26.44;44.04785;933.4724;;;;
2019/09/22 11:50:22;;;;;;;3.1;1.6;;;;;;;26.9;41.44922;933.4291;;;;
2019/09/22 11:52:47;;;;;;;3.4;1.7;;;;;;;27.78;40.12988;933.387;;;;
2019/09/22 11:55:26;;;;;;;5.9;1.8;;;;;;;28.84;38.77344;933.4424;;;;
2019/09/22 11:57:53;;;;;;;3.9;1.6;;;;;;;29.53;36.52051;933.3862;;;;
2019/09/22 12:00:26;;;;;;;4;1.8;;;;;;;30.11;33.4043;933.3219;;;;
2019/09/22 12:03:19;;;;;;;4.7;1.6;;;;;;;30.18;34.36426;933.3176;;;;
2019/09/22 12:06:00;;;;;;;3.7;1.6;;;;;;;30.9;32.6377;933.2787;;;;
2019/09/22 12:08:26;;;;;;;6;1.8;;;;;;;31.86;31.40039;933.2942;;;;
2019/09/22 12:10:57;;;;;;;3.7;1.9;;;;;;;32.61;29.55664;933.2399;;;;
2019/09/22 12:13:28;;;;;;;3.8;1.6;;;;;;;33.26;28.78125;933.1838;;;;
2019/09/22 12:16:03;;;;;;;4.1;1.6;;;;;;;33.19;28.54883;933.1721;;;;
2019/09/22 12:18:29;;;;;;;5.1;1.6;;;;;;;32.55;29.06055;933.1895;;;;
2019/09/22 12:21:01;;;;;;;2.4;1.4;;;;;;;31.97;29.41895;933.1368;;;;
2019/09/22 12:23:32;;;;;;;4.2;1.5;;;;;;;31.12;31.0625;933.0536;;;;
2019/09/22 12:26:07;;;;;;;5.6;1.8;;;;;;;30.28;33.57129;933.032;;;;
2019/09/22 12:28:33;;;;;;;4.3;1.7;;;;;;;29.62;36.15723;933.0211;;;;
2019/09/22 12:31:02;;;;;;;5.4;1.7;;;;;;;29.1;37.33008;933.0553;;;;
2019/09/22 12:33:26;;;;;;;4.4;1.6;;;;;;;28.91;37.24316;933.0273;;;;
2019/09/22 12:35:54;;;;;;;4.7;1.7;;;;;;;28.63;38.2793;932.9771;;;;
2019/09/22 12:38:21;;;;;;;6.4;1.8;;;;;;;28.42;38.98535;933.0576;;;;
2019/09/22 12:40:51;;;;;;;4.9;1.9;;;;;;;28.28;40.12695;933.077;;;;
2019/09/22 12:43:21;;;;;;;5;1.7;;;;;;;28.27;40.51855;933.0489;;;;
2019/09/22 12:45:54;;;;;;;2.8;1.7;;;;;;;28.34;39.39551;932.9878;;;;
2019/09/22 12:48:23;;;;;;;3.3;1.7;;;;;;;28.61;38.83691;933.0928;;;;
2019/09/22 12:51:17;;;;;;;6.1;1.7;;;;;;;29.33;37.83887;932.9874;;;;
2019/09/22 12:53:38;;;;;;;4.3;1.6;;;;;;;31.07;34.83887;932.9178;;;;
2019/09/22 12:56:12;;;;;;;4.1;1.7;;;;;;;33.27;30.76563;932.9447;;;;
2019/09/22 12:58:44;;;;;;;4.4;1.5;;;;;;;33.4;28.53809;932.8936;;;;
2019/09/22 13:01:12;;;;;;;4.9;1.7;;;;;;;32.68;30.3291;932.9099;;;;
2019/09/22 13:03:52;;;;;;;4.1;1.7;;;;;;;32.01;32.40625;932.91;;;;
2019/09/22 13:06:24;;;;;;;4.6;1.6;;;;;;;31.47;33.91211;932.9196;;;;
2019/09/22 13:09:07;;;;;;;4.7;1.6;;;;;;;30.72;33.81934;932.9606;;;;
2019/09/22 13:11:34;;;;;;;4.7;1.6;;;;;;;30.08;35.26367;932.8954;;;;
2019/09/22 13:14:00;;;;;;;4.8;1.6;;;;;;;29.58;35.24902;932.9131;;;;
2019/09/22 13:16:27;;;;;;;6.6;1.7;;;;;;;29.06;36.50586;932.8731;;;;
2019/09/22 13:18:53;;;;;;;5.1;1.7;;;;;;;28.66;37.33008;932.8917;;;;
2019/09/22 13:21:27;;;;;;;3.2;1.6;;;;;;;28.43;39.21289;932.9084;;;;
2019/09/22 13:24:19;;;;;;;4.3;2;;;;;;;28.38;39.2334;932.8906;;;;
2019/09/22 13:26:50;;;;;;;6.2;1.7;;;;;;;27.87;40.34082;932.8951;;;;
2019/09/22 13:29:22;;;;;;;4.5;1.8;;;;;;;27.74;41.70605;932.8571;;;;
2019/09/22 13:31:59;;;;;;;4.5;1.8;;;;;;;27.67;41.43848;932.8438;;;;
2019/09/22 13:34:19;;;;;;;5.2;1.7;;;;;;;27.76;41.1377;932.8312;;;;
2019/09/22 13:37:00;;;;;;;4.6;1.8;;;;;;;28.39;40.92188;932.8414;;;;
2019/09/22 13:39:26;;;;;;;3.4;1.8;;;;;;;29.27;39.20313;932.7644;;;;
2019/09/22 13:41:56;;;;;;;3.9;1.7;;;;;;;29.7;37.18945;932.7572;;;;
2019/09/22 13:44:32;;;;;;;3.1;1.8;;;;;;;29.46;38.5166;932.7917;;;;
2019/09/22 13:47:01;;;;;;;5.4;1.9;;;;;;;28.73;39.38281;932.7661;;;;
2019/09/22 13:49:38;;;;;;;3;1.6;;;;;;;28.3;39.66602;932.7272;;;;
2019/09/22 13:52:03;;;;;;;4.3;1.8;;;;;;;28.07;41.09473;932.7899;;;;
2019/09/22 13:54:29;;;;;;;5;1.8;;;;;;;27.45;41.5957;932.8519;;;;
2019/09/22 13:57:05;;;;;;;5.3;1.9;;;;;;;27.08;42.9248;932.8675;;;;
2019/09/22 13:59:34;;;;;;;4.4;1.9;;;;;;;26.78;43.84375;932.7965;;;;
2019/09/22 14:02:03;;;;;;;3.4;2.1;;;;;;;26.48;44.2168;932.8708;;;;
2019/09/22 14:04:35;;;;;;;3.7;1.7;;;;;;;26.03;44.61133;932.8206;;;;
2019/09/22 14:07:07;;;;;;;3.1;1.9;;;;;;;25.68;45.8877;932.8187;;;;
2019/09/22 14:09:49;;;;;;;4.9;2.1;;;;;;;25.75;45.59863;932.858;;;;
2019/09/22 14:12:19;;;;;;;2.7;1.6;;;;;;;25.68;46.27637;932.8794;;;;
2019/09/22 14:14:45;;;;;;;5;1.7;;;;;;;25.66;46.0498;932.8167;;;;
2019/09/22 14:17:17;;;;;;;4.4;1.8;;;;;;;25.79;46.54883;932.8596;;;;
2019/09/22 14:19:52;;;;;;;3.3;1.9;;;;;;;26.01;45.80273;932.8209;;;;
2019/09/22 14:22:09;;;;;;;3.9;1.7;;;;;;;25.88;46.12109;932.8692;;;;
2019/09/22 14:24:36;;;;;;;3.8;1.7;;;;;;;25.72;47.73535;932.8229;;;;
2019/09/22 14:27:18;;;;;;;5;1.8;;;;;;;25.78;47.30371;932.8066;;;;
2019/09/22 14:29:49;;;;;;;3.5;1.8;;;;;;;25.79;47.83691;932.8204;;;;
2019/09/22 14:32:17;;;;;;;5.6;2;;;;;;;25.67;47.03223;932.8053;;;;
2019/09/22 14:34:47;;;;;;;4.1;1.8;;;;;;;25.47;47.70801;932.7603;;;;
2019/09/22 14:37:22;;;;;;;3.4;1.8;;;;;;;25.35;47.60059;932.7261;;;;
2019/09/22 14:39:56;;;;;;;3.5;1.8;;;;;;;25.33;48.14258;932.728;;;;
2019/09/22 14:42:23;;;;;;;5.1;1.9;;;;;;;25.26;48.13379;932.775;;;;
2019/09/22 14:44:50;;;;;;;4;2;;;;;;;25.19;47.5127;932.807;;;;
2019/09/22 14:49:53;;;;;;;6.6;2.2;;;;;;;25.07;47.77051;932.774;;;;
2019/09/22 14:52:17;;;;;;;4.5;1.9;;;;;;;25.1;46.71289;932.7304;;;;
2019/09/22 14:54:51;;;;;;;7.6;2.1;;;;;;;25.23;47.12793;932.7569;;;;
2019/09/22 14:57:23;;;;;;;4.6;2.1;;;;;;;25.27;47.41504;932.7572;;;;
2019/09/22 14:59:49;;;;;;;5.6;1.8;;;;;;;25.11;47.45703;932.7921;;;;
2019/09/22 15:02:26;;;;;;;3.2;1.9;;;;;;;24.71;49.39551;932.7803;;;;
2019/09/22 15:04:53;;;;;;;4.2;1.9;;;;;;;24.87;49.44922;932.8006;;;;
2019/09/22 15:07:13;;;;;;;4.5;1.8;;;;;;;24.97;49.38867;932.8678;;;;
2019/09/22 15:09:41;;;;;;;3.4;2;;;;;;;25.05;49.22168;932.8734;;;;
2019/09/22 15:12:11;;;;;;;5.3;2.9;;;;;;;25.15;48.27637;932.8755;;;;